Time;durP1;ratioP1;P1;durP2;ratioP2;P2;SDS_P1;SDS_P2;PMS_P1;PMS_P2;Temp;Humidity;BMP_temperature;BMP_pressure;BME280_temperature;BME280_humidity;BME280_pressure;Samples;Min_cycle;Max_cycle;Signal;HPM_P1;HPM_P2
2021/05/24 00:00:14;;;;;;;8.77;3.47;;;;;;;;;;6275461;22;19999;-79
2021/05/24 00:02:40;;;;;;;5.00;2.47;;;;;;;;;;6246824;22;20003;-79
2021/05/24 00:05:09;;;;;;;4.20;2.08;;;;;;;;;;6274793;22;20063;-79
2021/05/24 00:07:34;;;;;;;4.50;2.13;;;;;;;;;;6247396;22;19999;-79
2021/05/24 00:10:00;;;;;;;4.32;2.40;;;;;;;;;;6276086;22;20003;-79
2021/05/24 00:12:26;;;;;;;3.92;2.28;;;;;;;;;;6275276;22;19999;-79
2021/05/24 00:14:54;;;;;;;4.55;2.05;;;;;;;;;;6274691;22;20003;-79
2021/05/24 00:17:20;;;;;;;5.60;2.65;;;;;;;;;;6248360;22;20442;-79
2021/05/24 00:19:45;;;;;;;5.00;2.33;;;;;;;;;;6273973;22;20000;-79
2021/05/24 00:22:11;;;;;;;5.55;2.60;;;;;;;;;;6274736;22;20481;-79
2021/05/24 00:24:36;;;;;;;6.03;2.42;;;;;;;;;;6248035;22;20004;-79
2021/05/24 00:27:02;;;;;;;4.88;2.40;;;;;;;;;;6275076;22;19999;-79
2021/05/24 00:29:27;;;;;;;6.95;2.70;;;;;;;;;;6247790;22;20003;-79
2021/05/24 00:31:53;;;;;;;3.58;2.50;;;;;;;;;;6274299;22;20058;-79
2021/05/24 00:34:19;;;;;;;4.30;2.33;;;;;;;;;;6274647;22;20333;-79
2021/05/24 00:36:44;;;;;;;6.85;2.22;;;;;;;;;;6274348;22;20410;-79
2021/05/24 00:39:09;;;;;;;3.55;2.00;;;;;;;;;;6274559;22;20023;-79
2021/05/24 00:41:37;;;;;;;3.70;1.90;;;;;;;;;;6275548;22;20070;-79
2021/05/24 00:44:04;;;;;;;4.00;2.00;;;;;;;;;;6275952;22;20010;-79
2021/05/24 00:46:30;;;;;;;5.15;2.15;;;;;;;;;;6276860;22;20079;-79
2021/05/24 00:48:56;;;;;;;2.55;1.90;;;;;;;;;;6275812;22;20016;-79
2021/05/24 00:51:21;;;;;;;5.00;2.30;;;;;;;;;;6276850;22;20006;-79
2021/05/24 00:53:46;;;;;;;5.10;2.22;;;;;;;;;;6276374;22;20027;-79
2021/05/24 00:56:12;;;;;;;3.80;2.10;;;;;;;;;;6277199;22;19999;-79
2021/05/24 00:58:38;;;;;;;2.70;1.90;;;;;;;;;;6249503;22;20053;-79
2021/05/24 01:01:03;;;;;;;4.65;1.90;;;;;;;;;;6277119;22;20000;-79
2021/05/24 01:03:29;;;;;;;3.38;1.88;;;;;;;;;;6277228;22;20000;-79
2021/05/24 01:05:54;;;;;;;3.38;1.63;;;;;;;;;;6275558;22;20027;-79
2021/05/24 01:08:20;;;;;;;3.85;2.10;;;;;;;;;;6276751;22;20074;-79
2021/05/24 01:10:46;;;;;;;6.45;2.13;;;;;;;;;;6276222;22;20007;-79
2021/05/24 01:13:13;;;;;;;3.35;2.00;;;;;;;;;;6276040;22;20000;-79
2021/05/24 01:15:39;;;;;;;3.28;2.15;;;;;;;;;;6277126;22;20004;-79
2021/05/24 01:18:05;;;;;;;3.70;1.88;;;;;;;;;;6275674;22;20053;-79
2021/05/24 01:20:31;;;;;;;3.95;2.15;;;;;;;;;;6249665;22;19999;-79
2021/05/24 01:25:24;;;;;;;3.05;1.77;;;;;;;;;;6276622;22;19999;-79
2021/05/24 01:27:50;;;;;;;3.40;2.03;;;;;;;;;;6275355;22;20049;-79
2021/05/24 01:30:16;;;;;;;5.35;2.45;;;;;;;;;;6249860;22;20000;-79
2021/05/24 01:32:41;;;;;;;4.63;2.17;;;;;;;;;;6249033;22;20014;-79
2021/05/24 01:35:07;;;;;;;4.97;2.35;;;;;;;;;;6276749;22;20417;-79
2021/05/24 01:37:33;;;;;;;5.03;2.28;;;;;;;;;;6276671;22;20071;-79
2021/05/24 01:40:00;;;;;;;4.75;2.67;;;;;;;;;;6249731;22;20034;-79
2021/05/24 01:42:25;;;;;;;6.38;2.53;;;;;;;;;;6276082;22;20000;-79
2021/05/24 01:44:51;;;;;;;3.67;2.25;;;;;;;;;;6276021;22;20002;-79
2021/05/24 01:47:16;;;;;;;6.15;2.50;;;;;;;;;;6249155;22;20020;-79
2021/05/24 01:49:47;;;;;;;4.43;2.63;;;;;;;;;;6275750;22;20341;-79
2021/05/24 01:52:14;;;;;;;4.47;2.90;;;;;;;;;;6248946;22;20057;-79
2021/05/24 01:54:41;;;;;;;3.47;2.00;;;;;;;;;;6276102;22;20007;-79
2021/05/24 01:57:07;;;;;;;6.13;2.83;;;;;;;;;;6275884;22;20053;-79
2021/05/24 01:59:32;;;;;;;5.97;2.67;;;;;;;;;;6276030;22;19999;-79
2021/05/24 02:01:58;;;;;;;6.63;2.80;;;;;;;;;;6275197;22;20003;-79
2021/05/24 02:04:23;;;;;;;4.18;2.30;;;;;;;;;;6276162;22;20008;-79
2021/05/24 02:06:49;;;;;;;3.33;2.42;;;;;;;;;;6276093;22;20053;-79
2021/05/24 02:09:14;;;;;;;4.57;2.60;;;;;;;;;;6276322;22;19996;-79
2021/05/24 02:11:40;;;;;;;3.70;2.40;;;;;;;;;;6276225;22;19995;-79
2021/05/24 02:14:06;;;;;;;5.15;2.30;;;;;;;;;;6275542;22;19995;-80
2021/05/24 02:16:40;;;;;;;3.50;2.40;;;;;;;;;;6276067;22;20072;-79
2021/05/24 02:19:10;;;;;;;3.95;2.72;;;;;;;;;;6275047;22;19995;-79
2021/05/24 02:21:36;;;;;;;6.53;2.70;;;;;;;;;;6269553;22;20010;-80
2021/05/24 02:24:03;;;;;;;6.63;2.22;;;;;;;;;;6247754;22;20000;-79
2021/05/24 02:26:28;;;;;;;4.22;2.25;;;;;;;;;;6248153;22;20438;-80
2021/05/24 02:28:54;;;;;;;2.65;1.80;;;;;;;;;;6275118;22;20007;-79
2021/05/24 02:31:20;;;;;;;5.28;2.40;;;;;;;;;;6275728;22;20010;-80
2021/05/24 02:33:47;;;;;;;3.65;1.83;;;;;;;;;;6248973;22;20039;-79
2021/05/24 02:36:12;;;;;;;4.60;2.15;;;;;;;;;;6249137;22;20003;-79
2021/05/24 02:38:38;;;;;;;2.55;1.80;;;;;;;;;;6248105;22;20006;-79
2021/05/24 02:41:03;;;;;;;3.63;1.70;;;;;;;;;;6274839;22;20066;-79
2021/05/24 02:43:29;;;;;;;3.83;1.85;;;;;;;;;;6275587;22;20004;-79
2021/05/24 02:45:54;;;;;;;3.85;1.90;;;;;;;;;;6248771;22;19995;-80
2021/05/24 02:48:20;;;;;;;3.88;1.88;;;;;;;;;;6275218;22;20019;-79
2021/05/24 02:50:45;;;;;;;3.08;1.90;;;;;;;;;;6276020;22;20004;-79
2021/05/24 02:53:11;;;;;;;3.78;2.05;;;;;;;;;;6274611;22;20000;-79
2021/05/24 02:55:37;;;;;;;3.95;2.03;;;;;;;;;;6248455;22;20006;-79
2021/05/24 02:58:05;;;;;;;3.75;1.70;;;;;;;;;;6275009;22;20368;-79
2021/05/24 03:00:31;;;;;;;3.40;1.80;;;;;;;;;;6275807;22;20011;-79
2021/05/24 03:02:57;;;;;;;5.00;2.00;;;;;;;;;;6275180;22;20080;-79
2021/05/24 03:05:24;;;;;;;4.60;2.20;;;;;;;;;;6275272;22;20003;-79
2021/05/24 03:07:50;;;;;;;3.28;1.90;;;;;;;;;;6274868;22;20089;-79
2021/05/24 03:10:18;;;;;;;2.28;1.70;;;;;;;;;;6274861;22;20437;-79
2021/05/24 03:12:43;;;;;;;4.72;2.00;;;;;;;;;;6275390;22;20000;-79
2021/05/24 03:15:11;;;;;;;3.75;2.00;;;;;;;;;;6275296;22;20436;-79
2021/05/24 03:17:37;;;;;;;3.03;1.65;;;;;;;;;;6276105;22;20070;-79
2021/05/24 03:20:04;;;;;;;2.45;1.83;;;;;;;;;;6275304;22;20045;-79
2021/05/24 03:22:30;;;;;;;3.95;1.90;;;;;;;;;;6274558;22;20003;-79
2021/05/24 03:24:55;;;;;;;3.10;1.67;;;;;;;;;;6247857;22;20461;-79
2021/05/24 03:27:21;;;;;;;4.78;2.00;;;;;;;;;;6274509;22;20004;-79
2021/05/24 03:29:47;;;;;;;3.95;1.80;;;;;;;;;;6248641;22;20007;-80
2021/05/24 03:32:12;;;;;;;6.05;2.40;;;;;;;;;;6247863;22;20000;-80
2021/05/24 03:34:38;;;;;;;6.22;2.00;;;;;;;;;;6276012;22;20057;-80
2021/05/24 03:37:03;;;;;;;4.53;2.40;;;;;;;;;;6274133;22;19999;-79
2021/05/24 03:39:29;;;;;;;3.65;2.60;;;;;;;;;;6275246;22;20003;-79
2021/05/24 03:41:54;;;;;;;5.18;2.45;;;;;;;;;;6247859;22;20011;-79
2021/05/24 03:44:20;;;;;;;5.80;2.60;;;;;;;;;;6247899;22;20011;-80
2021/05/24 03:46:45;;;;;;;5.40;2.80;;;;;;;;;;6275107;22;20083;-79
2021/05/24 03:49:12;;;;;;;5.13;2.53;;;;;;;;;;6274828;22;20000;-79
2021/05/24 03:51:38;;;;;;;5.05;2.72;;;;;;;;;;6247989;22;19996;-79
2021/05/24 03:54:03;;;;;;;4.65;2.42;;;;;;;;;;6248080;22;19992;-79
2021/05/24 03:56:29;;;;;;;6.25;2.45;;;;;;;;;;6274671;22;19999;-79
2021/05/24 03:58:54;;;;;;;5.10;2.40;;;;;;;;;;6247786;22;20137;-79
2021/05/24 04:01:20;;;;;;;6.15;2.38;;;;;;;;;;6274590;22;20129;-79
2021/05/24 04:03:45;;;;;;;5.05;2.05;;;;;;;;;;6248219;22;20007;-79
2021/05/24 04:06:14;;;;;;;3.90;2.00;;;;;;;;;;6274250;22;19999;-79
2021/05/24 04:08:45;;;;;;;2.45;1.90;;;;;;;;;;6274762;22;19996;-79
2021/05/24 04:11:11;;;;;;;4.43;1.95;;;;;;;;;;6274576;22;20003;-79
2021/05/24 04:13:37;;;;;;;4.78;2.30;;;;;;;;;;6275418;22;19999;-79
2021/05/24 04:16:03;;;;;;;3.92;2.13;;;;;;;;;;6276550;22;20000;-79
2021/05/24 04:18:34;;;;;;;3.60;1.98;;;;;;;;;;6276848;22;20003;-79
2021/05/24 04:20:59;;;;;;;;;;;;;;;;;;6277788;22;20007;-79
2021/05/24 04:23:25;;;;;;;3.53;2.15;;;;;;;;;;6249630;22;20329;-80
2021/05/24 04:25:51;;;;;;;4.70;2.10;;;;;;;;;;6250229;22;19999;-79
2021/05/24 04:28:16;;;;;;;2.47;1.58;;;;;;;;;;6249926;22;20050;-79
2021/05/24 04:30:43;;;;;;;2.08;1.65;;;;;;;;;;6276592;22;20003;-79
2021/05/24 04:33:09;;;;;;;4.07;1.80;;;;;;;;;;6250370;22;20000;-80
2021/05/24 04:35:35;;;;;;;4.00;1.80;;;;;;;;;;6249893;22;20011;-79
2021/05/24 04:38:00;;;;;;;3.03;1.77;;;;;;;;;;6277235;22;20023;-79
2021/05/24 04:40:26;;;;;;;3.22;1.90;;;;;;;;;;6249554;22;20049;-80
2021/05/24 04:42:53;;;;;;;5.07;2.20;;;;;;;;;;6249437;22;20467;-80
2021/05/24 04:45:18;;;;;;;4.03;2.42;;;;;;;;;;6277154;22;20000;-80
2021/05/24 04:47:44;;;;;;;4.70;2.80;;;;;;;;;;6244534;23;20066;-79
2021/05/24 04:50:10;;;;;;;4.05;2.35;;;;;;;;;;6246279;23;20000;-80
2021/05/24 04:52:36;;;;;;;6.35;3.00;;;;;;;;;;6246146;22;19996;-79
2021/05/24 04:55:03;;;;;;;5.90;2.97;;;;;;;;;;6245906;22;20038;-80
2021/05/24 04:57:29;;;;;;;4.80;2.50;;;;;;;;;;6246041;22;20075;-80
2021/05/24 04:59:54;;;;;;;6.95;2.20;;;;;;;;;;6244627;23;20373;-79
2021/05/24 05:02:20;;;;;;;2.30;1.80;;;;;;;;;;6244093;23;20011;-79
2021/05/24 05:04:46;;;;;;;4.57;1.90;;;;;;;;;;6246189;22;20000;-80
2021/05/24 05:07:12;;;;;;;4.13;2.00;;;;;;;;;;6244121;23;20007;-79
2021/05/24 05:09:37;;;;;;;4.28;1.90;;;;;;;;;;6246182;22;20000;-79
2021/05/24 05:12:03;;;;;;;4.18;2.20;;;;;;;;;;6249410;22;20000;-79
2021/05/24 05:14:28;;;;;;;3.22;2.08;;;;;;;;;;6276503;22;20388;-79
2021/05/24 05:16:54;;;;;;;3.72;2.10;;;;;;;;;;6277292;22;20000;-79
2021/05/24 05:19:20;;;;;;;3.75;2.17;;;;;;;;;;6248248;22;20004;-79
2021/05/24 05:21:47;;;;;;;3.75;2.20;;;;;;;;;;6276573;22;20042;-79
2021/05/24 05:24:12;;;;;;;3.83;2.60;;;;;;;;;;6248854;22;20007;-80
2021/05/24 05:26:38;;;;;;;4.30;2.65;;;;;;;;;;6276444;22;19999;-80
2021/05/24 05:29:03;;;;;;;4.88;2.03;;;;;;;;;;6250118;22;20096;-80
2021/05/24 05:31:29;;;;;;;3.50;2.25;;;;;;;;;;6276246;22;20076;-79
2021/05/24 05:33:55;;;;;;;3.35;2.20;;;;;;;;;;6275921;22;19999;-80
2021/05/24 05:36:21;;;;;;;4.65;2.35;;;;;;;;;;6276545;22;20011;-80
2021/05/24 05:38:46;;;;;;;4.10;2.40;;;;;;;;;;6249146;22;20018;-79
2021/05/24 05:41:12;;;;;;;4.78;2.30;;;;;;;;;;6249597;22;20003;-79
2021/05/24 06:58:03;;;;;;;5.72;2.33;;;;;;;;;;6271203;22;20023;-80
2021/05/24 07:00:29;;;;;;;8.68;2.00;;;;;;;;;;6295395;22;20027;-81
2021/05/24 07:02:55;;;;;;;5.15;2.53;;;;;;;;;;6292232;22;20000;-80
2021/05/24 07:08:14;;;;;;;13.23;3.03;;;;;;;;;;6297429;22;20004;-81
2021/05/24 07:10:40;;;;;;;6.03;2.35;;;;;;;;;;6292398;22;20064;-80
2021/05/24 07:13:06;;;;;;;5.80;2.10;;;;;;;;;;6290460;22;19992;-81
2021/05/24 07:15:43;;;;;;;3.90;2.63;;;;;;;;;;6292738;22;20000;-81
2021/05/24 07:18:21;;;;;;;8.80;2.25;;;;;;;;;;6296015;22;20453;-81
2021/05/24 07:20:48;;;;;;;4.85;2.35;;;;;;;;;;6271703;22;20004;-80
2021/05/24 07:23:47;;;;;;;5.32;2.35;;;;;;;;;;6295140;22;20011;-81
2021/05/24 07:26:19;;;;;;;4.88;2.42;;;;;;;;;;6248280;22;20382;-81
2021/05/24 07:28:44;;;;;;;3.63;2.40;;;;;;;;;;6292991;22;20047;-80
2021/05/24 07:31:11;;;;;;;3.60;1.95;;;;;;;;;;6287513;22;20026;-81
2021/05/24 07:33:39;;;;;;;3.97;2.40;;;;;;;;;;6288339;22;19996;-81
2021/05/24 07:36:05;;;;;;;3.25;2.10;;;;;;;;;;6283618;22;20002;-80
2021/05/24 07:38:31;;;;;;;7.18;2.38;;;;;;;;;;6285476;22;20002;-80
2021/05/24 07:40:56;;;;;;;5.38;2.20;;;;;;;;;;6287943;22;20023;-80
2021/05/24 07:49:10;;;;;;;7.40;2.15;;;;;;;;;;6209954;22;20021;-82
2021/05/24 07:51:39;;;;;;;2.83;1.30;;;;;;;;;;6205666;23;19997;-82
2021/05/24 08:33:21;;;;;;;3.97;1.42;;;;;;;;;;6178853;23;20056;-83
2021/05/24 08:36:02;;;;;;;3.88;1.70;;;;;;;;;;6177436;23;19997;-83
2021/05/24 08:38:56;;;;;;;3.30;1.50;;;;;;;;;;6176397;23;19985;-83
2021/05/24 08:41:28;;;;;;;3.20;1.50;;;;;;;;;;6152952;23;20032;-83
2021/05/24 08:44:07;;;;;;;3.63;1.70;;;;;;;;;;6173358;23;19997;-82
2021/05/24 08:46:41;;;;;;;2.95;1.77;;;;;;;;;;6172820;23;20001;-82
2021/05/24 08:49:32;;;;;;;4.95;2.08;;;;;;;;;;6174558;23;20005;-82
2021/05/24 08:52:00;;;;;;;3.20;1.77;;;;;;;;;;6172219;23;20012;-82
2021/05/24 08:54:37;;;;;;;7.03;2.05;;;;;;;;;;6175133;23;20008;-82
2021/05/24 08:57:16;;;;;;;3.35;2.00;;;;;;;;;;6169643;23;20009;-82
2021/05/24 08:59:54;;;;;;;5.50;1.80;;;;;;;;;;6127683;23;20021;-82
2021/05/24 09:02:29;;;;;;;3.22;1.60;;;;;;;;;;6126387;23;20006;-82
2021/05/24 09:05:11;;;;;;;4.03;1.60;;;;;;;;;;6149873;23;20494;-82
2021/05/24 09:43:07;;;;;;;4.28;1.65;;;;;;;;;;6361688;22;20123;-83
2021/05/24 10:12:46;;;;;;;5.90;1.70;;;;;;;;;;6283402;22;20031;-83
2021/05/24 10:16:12;;;;;;;7.13;2.10;;;;;;;;;;6258821;22;20020;-83
2021/05/24 10:18:58;;;;;;;4.93;1.80;;;;;;;;;;6272437;23;20238;-83
2021/05/24 10:21:49;;;;;;;6.80;1.90;;;;;;;;;;6177294;23;20020;-83
2021/05/24 10:24:24;;;;;;;4.90;1.70;;;;;;;;;;6241529;22;20008;-83
2021/05/24 10:27:20;;;;;;;4.10;1.80;;;;;;;;;;6218060;22;20000;-83
2021/05/24 10:41:39;;;;;;;8.35;1.73;;;;;;;;;;6262740;22;20012;-84
2021/05/24 10:44:45;;;;;;;6.85;1.80;;;;;;;;;;6298304;22;20018;-83
2021/05/24 10:55:34;;;;;;;3.15;1.42;;;;;;;;;;6296993;22;20026;-83
2021/05/24 10:58:15;;;;;;;3.05;1.20;;;;;;;;;;6272745;22;19984;-83
2021/05/24 11:01:03;;;;;;;4.18;1.48;;;;;;;;;;6300474;22;20022;-83
2021/05/24 11:04:08;;;;;;;2.88;1.10;;;;;;;;;;6226233;22;20015;-83
2021/05/24 11:07:16;;;;;;;4.60;1.20;;;;;;;;;;6301009;22;20015;-83
2021/05/24 11:09:44;;;;;;;3.25;1.40;;;;;;;;;;6201852;23;19992;-83
2021/05/24 11:12:44;;;;;;;3.67;1.23;;;;;;;;;;6210358;23;20069;-83
2021/05/24 11:18:33;;;;;;;3.97;1.02;;;;;;;;;;6237027;22;20004;-82
2021/05/24 11:22:06;;;;;;;5.63;1.30;;;;;;;;;;6248166;22;20016;-82
2021/05/24 11:50:19;;;;;;;3.03;1.23;;;;;;;;;;6268820;22;20039;-82
2021/05/24 11:53:44;;;;;;;1.98;0.98;;;;;;;;;;6206163;23;20068;-82
2021/05/24 11:57:07;;;;;;;2.67;1.08;;;;;;;;;;6284618;22;20006;-81
2021/05/24 11:59:49;;;;;;;11.38;1.50;;;;;;;;;;6304406;22;19995;-81
2021/05/24 12:02:33;;;;;;;4.55;1.20;;;;;;;;;;6292124;22;20007;-81
2021/05/24 12:05:21;;;;;;;2.88;1.27;;;;;;;;;;6302689;22;20046;-82
2021/05/24 12:07:49;;;;;;;2.72;1.10;;;;;;;;;;6298559;22;19987;-82
2021/05/24 12:10:24;;;;;;;2.70;1.30;;;;;;;;;;6277520;22;20075;-82
2021/05/24 12:13:29;;;;;;;3.28;1.02;;;;;;;;;;6274011;22;20004;-82
2021/05/24 12:37:28;;;;;;;2.25;1.15;;;;;;;;;;6283053;22;20081;-82
2021/05/24 12:39:59;;;;;;;2.63;1.25;;;;;;;;;;6271754;22;20043;-82
2021/05/24 12:42:25;;;;;;;;;;;;;;;;;;6271713;22;20006;-82
2021/05/24 12:44:52;;;;;;;2.63;1.50;;;;;;;;;;6270893;22;19895;-83
2021/05/24 12:47:22;;;;;;;1.80;1.15;;;;;;;;;;6270038;22;20004;-83
2021/05/24 12:49:50;;;;;;;5.85;1.23;;;;;;;;;;6297122;22;19999;-83
2021/05/24 12:52:19;;;;;;;3.20;1.25;;;;;;;;;;6296196;22;20000;-83
2021/05/24 12:54:51;;;;;;;2.70;1.27;;;;;;;;;;6298494;22;20049;-82
2021/05/24 12:57:30;;;;;;;6.55;1.50;;;;;;;;;;6298144;22;20026;-83
2021/05/24 12:59:58;;;;;;;3.13;1.40;;;;;;;;;;6272120;22;20000;-83
2021/05/24 13:02:29;;;;;;;5.63;1.65;;;;;;;;;;6298761;22;20003;-83
2021/05/24 13:05:13;;;;;;;4.85;1.88;;;;;;;;;;6271057;22;20003;-82
2021/05/24 13:10:18;;;;;;;4.28;1.50;;;;;;;;;;6273068;22;20026;-81
2021/05/24 13:12:48;;;;;;;5.45;1.55;;;;;;;;;;6274616;22;20008;-82
2021/05/24 13:29:51;;;;;;;8.13;1.85;;;;;;;;;;6278880;22;20049;-82
2021/05/24 13:34:49;;;;;;;4.25;1.90;;;;;;;;;;6308496;22;20027;-79
2021/05/24 13:37:18;;;;;;;4.07;1.70;;;;;;;;;;6309656;22;20054;-79
2021/05/24 13:39:44;;;;;;;3.95;1.70;;;;;;;;;;6309684;22;19995;-79
2021/05/24 13:42:12;;;;;;;4.22;1.65;;;;;;;;;;6309950;22;19999;-79
2021/05/24 13:44:39;;;;;;;4.88;1.80;;;;;;;;;;6310896;22;20025;-79
2021/05/24 13:49:52;;;;;;;6.03;1.98;;;;;;;;;;6313164;22;20452;-79
2021/05/24 13:52:18;;;;;;;4.88;1.85;;;;;;;;;;6316211;22;19995;-79
2021/05/24 13:54:43;;;;;;;3.03;1.73;;;;;;;;;;6285929;22;20463;-80
2021/05/24 13:57:09;;;;;;;4.50;1.90;;;;;;;;;;6311961;22;19998;-81
2021/05/24 13:59:35;;;;;;;4.32;2.20;;;;;;;;;;6310436;22;20428;-80
2021/05/24 14:02:00;;;;;;;7.72;2.53;;;;;;;;;;6307968;22;20002;-80
2021/05/24 14:04:26;;;;;;;4.68;1.83;;;;;;;;;;6308457;22;20664;-81
2021/05/24 14:06:51;;;;;;;4.15;1.70;;;;;;;;;;6308644;22;20480;-80
2021/05/24 14:09:17;;;;;;;5.22;2.33;;;;;;;;;;6280299;22;20053;-80
2021/05/24 14:11:42;;;;;;;45.33;5.13;;;;;;;;;;6307468;22;19995;-79
2021/05/24 14:14:11;;;;;;;9.95;2.90;;;;;;;;;;6306192;22;19995;-80
2021/05/24 14:16:38;;;;;;;6.53;2.85;;;;;;;;;;6330582;22;19995;-82
2021/05/24 14:19:04;;;;;;;6.35;2.58;;;;;;;;;;6303336;22;20007;-82
2021/05/24 14:21:30;;;;;;;4.53;2.40;;;;;;;;;;6301895;22;20003;-82
2021/05/24 14:23:59;;;;;;;5.30;2.45;;;;;;;;;;6330147;22;20063;-82
2021/05/24 14:26:24;;;;;;;4.15;1.88;;;;;;;;;;6329488;22;19979;-82
2021/05/24 14:28:51;;;;;;;4.70;1.70;;;;;;;;;;6329103;22;20063;-81
2021/05/24 14:31:17;;;;;;;4.30;1.60;;;;;;;;;;6329368;22;19999;-82
2021/05/24 14:33:56;;;;;;;6.90;1.45;;;;;;;;;;6313292;22;20015;-81
2021/05/24 14:36:33;;;;;;;6.35;1.40;;;;;;;;;;6331090;22;20530;-83
2021/05/24 15:33:19;;;;;;;4.20;1.50;;;;;;;;;;6237253;22;20031;-82
2021/05/24 15:35:49;;;;;;;3.95;1.33;;;;;;;;;;6210163;23;20027;-82
2021/05/24 15:38:31;;;;;;;3.85;1.45;;;;;;;;;;6162143;23;20017;-80
2021/05/24 15:41:01;;;;;;;2.80;1.58;;;;;;;;;;6203780;23;20013;-83
2021/05/24 15:43:33;;;;;;;5.60;1.40;;;;;;;;;;6202946;23;19997;-83
2021/05/24 15:46:03;;;;;;;6.05;1.63;;;;;;;;;;6200090;23;20005;-83
2021/05/24 15:48:32;;;;;;;5.28;1.50;;;;;;;;;;6201964;23;20065;-83
2021/05/24 15:50:58;;;;;;;2.88;1.25;;;;;;;;;;6177557;23;20008;-83
2021/05/24 15:53:28;;;;;;;3.55;1.50;;;;;;;;;;6203066;23;20016;-83
2021/05/24 15:55:57;;;;;;;3.25;1.55;;;;;;;;;;6201347;23;20008;-83
2021/05/24 15:58:33;;;;;;;3.10;1.40;;;;;;;;;;6205302;22;20020;-82
2021/05/24 16:01:08;;;;;;;3.75;1.48;;;;;;;;;;6236239;23;20008;-82
2021/05/24 16:03:43;;;;;;;4.82;1.33;;;;;;;;;;6260874;23;19996;-82
2021/05/24 16:06:10;;;;;;;3.42;1.05;;;;;;;;;;6262700;23;20035;-82
2021/05/24 16:09:14;;;;;;;2.92;1.10;;;;;;;;;;6267081;22;19997;-83
2021/05/24 16:20:02;;;;;;;1.08;0.90;;;;;;;;;;6209189;22;20036;-82
2021/05/24 17:18:29;;;;;;;5.63;5.22;;;;;;;;;;6246909;22;20031;-85
2021/05/24 17:20:54;;;;;;;5.15;4.15;;;;;;;;;;6250040;22;20008;-87
2021/05/24 17:23:20;;;;;;;1.23;1.13;;;;;;;;;;6247994;22;20442;-87
2021/05/24 17:25:45;;;;;;;1.38;1.20;;;;;;;;;;6276678;22;20000;-87
2021/05/24 17:28:11;;;;;;;1.70;1.33;;;;;;;;;;6249223;22;20074;-87
2021/05/24 17:30:36;;;;;;;1.20;1.10;;;;;;;;;;6276718;22;20007;-87
2021/05/24 17:33:05;;;;;;;1.40;1.25;;;;;;;;;;6276733;22;20366;-88
2021/05/24 17:35:30;;;;;;;1.48;1.25;;;;;;;;;;6276239;22;19996;-87
2021/05/24 17:37:57;;;;;;;1.60;1.17;;;;;;;;;;6276448;22;20003;-87
2021/05/24 17:40:25;;;;;;;2.65;1.20;;;;;;;;;;6276890;22;20020;-88
2021/05/24 17:42:51;;;;;;;3.08;1.38;;;;;;;;;;6276734;22;20075;-86
2021/05/24 17:45:25;;;;;;;2.85;1.20;;;;;;;;;;6276847;22;19999;-85
2021/05/24 17:47:52;;;;;;;3.45;1.30;;;;;;;;;;6276865;22;20041;-87
2021/05/24 17:52:51;;;;;;;2.03;1.00;;;;;;;;;;6276330;22;20420;-87
2021/05/24 17:55:20;;;;;;;2.30;0.77;;;;;;;;;;6276619;22;20381;-86
2021/05/24 17:57:45;;;;;;;2.22;1.00;;;;;;;;;;6277018;22;20000;-86
2021/05/24 18:00:18;;;;;;;2.65;1.10;;;;;;;;;;6274452;22;20059;-83
2021/05/24 18:02:44;;;;;;;2.95;1.10;;;;;;;;;;6266484;22;20508;-82
2021/05/24 18:05:29;;;;;;;1.70;0.90;;;;;;;;;;6247888;22;20492;-82
2021/05/24 18:07:54;;;;;;;2.15;1.00;;;;;;;;;;6276118;22;20662;-81
2021/05/24 18:10:20;;;;;;;2.38;0.95;;;;;;;;;;6276391;22;20027;-83
2021/05/24 18:12:47;;;;;;;2.63;1.30;;;;;;;;;;6247988;22;20326;-81
2021/05/24 18:15:33;;;;;;;3.55;1.13;;;;;;;;;;6279847;22;19995;-80
2021/05/24 18:18:11;;;;;;;3.53;1.55;;;;;;;;;;6280702;22;20349;-79
2021/05/24 18:20:38;;;;;;;4.35;1.35;;;;;;;;;;6291090;22;19995;-80
2021/05/24 18:23:05;;;;;;;2.95;1.17;;;;;;;;;;6290156;22;20004;-80
2021/05/24 18:25:32;;;;;;;5.10;1.58;;;;;;;;;;6296199;22;20460;-80
2021/05/24 18:27:57;;;;;;;2.05;1.20;;;;;;;;;;6288968;22;19996;-80
2021/05/24 18:30:27;;;;;;;4.10;1.40;;;;;;;;;;6290617;22;20015;-80
2021/05/24 18:32:56;;;;;;;3.40;1.38;;;;;;;;;;6292246;22;20047;-81
2021/05/24 18:35:32;;;;;;;13.32;12.00;;;;;;;;;;6298288;22;20010;-81
2021/05/24 18:38:20;;;;;;;2.33;1.20;;;;;;;;;;6272231;22;20003;-81
2021/05/24 18:40:52;;;;;;;2.17;1.42;;;;;;;;;;6273480;22;20003;-82
2021/05/24 18:43:23;;;;;;;2.28;1.25;;;;;;;;;;6273619;22;20085;-82
2021/05/24 18:45:51;;;;;;;3.08;1.50;;;;;;;;;;6298938;22;19995;-82
2021/05/24 18:49:06;;;;;;;2.45;1.40;;;;;;;;;;6274962;22;19999;-82
2021/05/24 19:02:09;;;;;;;4.00;3.00;;;;;;;;;;6274871;22;20018;-84
2021/05/24 19:04:38;;;;;;;5.10;1.60;;;;;;;;;;6246481;23;20438;-79
2021/05/24 19:07:03;;;;;;;4.30;1.27;;;;;;;;;;6217696;23;20045;-79
2021/05/24 19:22:31;;;;;;;3.03;1.60;;;;;;;;;;6235431;22;20008;-83
2021/05/24 20:26:04;;;;;;;33.15;24.33;;;;;;;;;;6273572;22;20030;-83
2021/05/24 20:29:18;;;;;;;4.72;2.35;;;;;;;;;;6272125;23;19996;-83
2021/05/24 20:33:11;;;;;;;5.80;2.35;;;;;;;;;;6209607;23;19993;-83
2021/05/24 20:36:15;;;;;;;6.40;3.30;;;;;;;;;;6210744;23;20008;-83
2021/05/24 20:38:44;;;;;;;4.95;1.75;;;;;;;;;;6186356;23;20020;-83
2021/05/24 20:41:10;;;;;;;53.15;35.83;;;;;;;;;;6155367;23;20009;-83
2021/05/24 20:43:41;;;;;;;9.10;4.43;;;;;;;;;;6184231;23;20013;-83
2021/05/24 20:46:10;;;;;;;22.67;16.02;;;;;;;;;;6210152;23;19992;-83
2021/05/24 20:48:43;;;;;;;6.68;2.88;;;;;;;;;;6205813;23;20012;-83
2021/05/24 20:51:38;;;;;;;29.80;19.50;;;;;;;;;;6210983;23;19993;-83
2021/05/24 20:54:16;;;;;;;55.72;38.35;;;;;;;;;;6208307;23;20041;-83
2021/05/24 20:56:45;;;;;;;35.45;24.52;;;;;;;;;;6207174;23;20016;-83
2021/05/24 20:59:13;;;;;;;11.70;5.90;;;;;;;;;;6220721;23;20362;-82
2021/05/24 21:27:53;;;;;;;7.10;3.90;;;;;;;;;;6284079;22;20231;-83
2021/05/24 21:30:20;;;;;;;5.38;3.60;;;;;;;;;;6273936;22;20027;-83
2021/05/24 21:35:28;;;;;;;8.63;5.25;;;;;;;;;;6300928;22;20003;-83
2021/05/24 21:38:12;;;;;;;4.50;1.60;;;;;;;;;;6274077;22;20492;-83
2021/05/24 21:40:50;;;;;;;5.88;1.90;;;;;;;;;;6299963;22;19999;-83
2021/05/24 21:43:22;;;;;;;5.05;1.42;;;;;;;;;;6273542;22;20004;-83
2021/05/24 21:45:48;;;;;;;3.85;1.70;;;;;;;;;;6299946;22;20027;-83
2021/05/24 21:48:15;;;;;;;4.00;1.20;;;;;;;;;;6300439;22;19995;-83
2021/05/24 21:50:43;;;;;;;4.18;0.93;;;;;;;;;;6300393;22;20047;-83
2021/05/24 21:53:10;;;;;;;5.13;1.70;;;;;;;;;;6300729;22;20002;-83
2021/05/24 21:55:37;;;;;;;3.10;1.40;;;;;;;;;;6300721;22;20019;-83
2021/05/24 21:58:04;;;;;;;6.05;2.40;;;;;;;;;;6217560;22;20071;-83
2021/05/24 22:00:42;;;;;;;3.15;1.75;;;;;;;;;;6275022;22;19999;-83
2021/05/24 22:03:15;;;;;;;3.53;1.73;;;;;;;;;;6273735;22;20010;-83
2021/05/24 22:05:44;;;;;;;4.30;1.33;;;;;;;;;;6299868;22;20011;-83
2021/05/24 22:08:13;;;;;;;3.47;1.38;;;;;;;;;;6300156;22;19996;-83
2021/05/24 22:11:02;;;;;;;3.92;1.67;;;;;;;;;;6274630;22;20006;-83
2021/05/24 22:13:28;;;;;;;3.70;1.90;;;;;;;;;;6253007;22;20059;-83
2021/05/24 22:16:04;;;;;;;5.88;1.92;;;;;;;;;;6299935;22;19996;-83
2021/05/24 22:18:30;;;;;;;5.13;1.67;;;;;;;;;;6300671;22;19999;-83
2021/05/24 22:21:36;;;;;;;3.88;1.40;;;;;;;;;;6300570;22;19996;-83
2021/05/24 22:24:03;;;;;;;4.25;1.48;;;;;;;;;;6275047;22;20003;-83
2021/05/24 22:26:39;;;;;;;5.70;1.27;;;;;;;;;;6274929;22;20023;-83
2021/05/24 22:29:13;;;;;;;2.58;1.17;;;;;;;;;;6300933;22;20002;-83
2021/05/24 22:31:47;;;;;;;2.65;1.30;;;;;;;;;;6300007;22;20030;-83
2021/05/24 22:34:16;;;;;;;3.30;1.63;;;;;;;;;;6276242;22;19988;-83
2021/05/24 22:36:42;;;;;;;6.03;1.30;;;;;;;;;;6301156;22;19991;-83
2021/05/24 22:39:27;;;;;;;2.92;1.30;;;;;;;;;;6300759;22;19980;-83
2021/05/24 22:41:57;;;;;;;3.38;1.30;;;;;;;;;;6300521;22;20041;-83
2021/05/24 22:44:33;;;;;;;3.47;1.30;;;;;;;;;;6274718;22;20493;-83
2021/05/24 22:50:08;;;;;;;4.18;1.13;;;;;;;;;;6255281;22;20023;-83
2021/05/24 22:52:36;;;;;;;5.32;1.25;;;;;;;;;;6363439;22;20027;-83
2021/05/24 23:15:47;;;;;;;4.53;1.20;;;;;;;;;;6244822;22;20019;-81
2021/05/24 23:21:17;;;;;;;4.70;1.40;;;;;;;;;;6211757;23;20000;-84
2021/05/24 23:23:53;;;;;;;3.95;1.20;;;;;;;;;;6204516;23;20005;-83
2021/05/24 23:26:28;;;;;;;4.57;1.20;;;;;;;;;;6207859;23;20008;-83
2021/05/24 23:29:00;;;;;;;2.50;1.17;;;;;;;;;;6203309;23;20025;-83
2021/05/24 23:31:28;;;;;;;3.97;1.27;;;;;;;;;;6182823;23;20005;-83
2021/05/24 23:33:54;;;;;;;3.10;1.25;;;;;;;;;;6208049;23;20004;-83
2021/05/24 23:36:24;;;;;;;3.60;1.50;;;;;;;;;;6183119;23;20012;-83
2021/05/24 23:38:52;;;;;;;3.95;1.30;;;;;;;;;;6183481;23;20010;-83
2021/05/24 23:41:22;;;;;;;3.90;1.20;;;;;;;;;;6207668;23;20065;-83
2021/05/24 23:43:52;;;;;;;4.55;1.40;;;;;;;;;;6207848;23;20009;-83
2021/05/24 23:46:25;;;;;;;4.43;1.35;;;;;;;;;;6182917;23;20025;-83
2021/05/24 23:48:55;;;;;;;4.38;1.17;;;;;;;;;;6182881;23;20020;-83
2021/05/24 23:51:26;;;;;;;4.10;1.10;;;;;;;;;;6207695;23;20000;-83
2021/05/24 23:53:57;;;;;;;5.80;1.20;;;;;;;;;;6184401;23;20001;-82
2021/05/24 23:56:24;;;;;;;3.67;1.40;;;;;;;;;;6233662;23;20007;-83
2021/05/24 23:58:53;;;;;;;2.67;1.10;;;;;;;;;;6239244;23;19997;-83
